sensor_id;sensor_type;location;lat;lon;timestamp;P1;durP1;ratioP1;P2;durP2;ratioP2
30533;SDS011;17318;52.390;9.754;2023-03-07T00:01:02;34.58;;;15.40;;
30533;SDS011;17318;52.390;9.754;2023-03-07T00:03:28;41.10;;;17.33;;
30533;SDS011;17318;52.390;9.754;2023-03-07T00:06:01;32.95;;;16.15;;
30533;SDS011;17318;52.390;9.754;2023-03-07T00:08:31;34.38;;;15.90;;
30533;SDS011;17318;52.390;9.754;2023-03-07T00:11:01;27.67;;;14.35;;
30533;SDS011;17318;52.390;9.754;2023-03-07T00:13:29;35.72;;;16.55;;
30533;SDS011;17318;52.390;9.754;2023-03-07T00:15:59;32.63;;;15.98;;
30533;SDS011;17318;52.390;9.754;2023-03-07T00:18:28;32.72;;;15.95;;
30533;SDS011;17318;52.390;9.754;2023-03-07T00:20:57;33.47;;;15.80;;
30533;SDS011;17318;52.390;9.754;2023-03-07T00:23:24;30.98;;;15.55;;
30533;SDS011;17318;52.390;9.754;2023-03-07T00:25:57;33.88;;;15.18;;
30533;SDS011;17318;52.390;9.754;2023-03-07T00:28:24;33.38;;;14.98;;
30533;SDS011;17318;52.390;9.754;2023-03-07T00:30:50;30.55;;;14.63;;
30533;SDS011;17318;52.390;9.754;2023-03-07T00:33:15;32.63;;;15.45;;
30533;SDS011;17318;52.390;9.754;2023-03-07T00:35:41;30.05;;;14.90;;
30533;SDS011;17318;52.390;9.754;2023-03-07T00:38:07;29.08;;;14.60;;
30533;SDS011;17318;52.390;9.754;2023-03-07T00:40:33;29.42;;;14.15;;
30533;SDS011;17318;52.390;9.754;2023-03-07T00:42:58;32.92;;;15.32;;
30533;SDS011;17318;52.390;9.754;2023-03-07T00:45:24;29.85;;;15.05;;
30533;SDS011;17318;52.390;9.754;2023-03-07T00:47:50;34.72;;;15.48;;
30533;SDS011;17318;52.390;9.754;2023-03-07T00:50:16;31.25;;;14.75;;
30533;SDS011;17318;52.390;9.754;2023-03-07T00:52:42;31.25;;;15.05;;
30533;SDS011;17318;52.390;9.754;2023-03-07T00:55:08;30.75;;;14.60;;
30533;SDS011;17318;52.390;9.754;2023-03-07T00:57:34;30.90;;;14.30;;
30533;SDS011;17318;52.390;9.754;2023-03-07T00:59:59;27.90;;;14.15;;
30533;SDS011;17318;52.390;9.754;2023-03-07T01:02:25;29.95;;;14.43;;
30533;SDS011;17318;52.390;9.754;2023-03-07T01:04:50;31.95;;;14.00;;
30533;SDS011;17318;52.390;9.754;2023-03-07T01:07:16;30.77;;;14.52;;
30533;SDS011;17318;52.390;9.754;2023-03-07T01:09:41;26.92;;;13.40;;
30533;SDS011;17318;52.390;9.754;2023-03-07T01:12:07;30.80;;;14.60;;
30533;SDS011;17318;52.390;9.754;2023-03-07T01:14:33;28.60;;;14.15;;
30533;SDS011;17318;52.390;9.754;2023-03-07T01:16:58;31.98;;;13.57;;
30533;SDS011;17318;52.390;9.754;2023-03-07T01:19:24;33.00;;;14.60;;
30533;SDS011;17318;52.390;9.754;2023-03-07T01:21:50;29.90;;;14.20;;
30533;SDS011;17318;52.390;9.754;2023-03-07T01:24:15;27.52;;;12.93;;
30533;SDS011;17318;52.390;9.754;2023-03-07T01:26:42;30.08;;;14.02;;
30533;SDS011;17318;52.390;9.754;2023-03-07T01:29:08;27.90;;;13.15;;
30533;SDS011;17318;52.390;9.754;2023-03-07T01:31:36;27.13;;;12.98;;
30533;SDS011;17318;52.390;9.754;2023-03-07T01:34:02;25.88;;;12.80;;
30533;SDS011;17318;52.390;9.754;2023-03-07T01:36:30;24.92;;;12.35;;
30533;SDS011;17318;52.390;9.754;2023-03-07T01:38:58;27.98;;;13.32;;
30533;SDS011;17318;52.390;9.754;2023-03-07T01:41:26;29.33;;;13.13;;
30533;SDS011;17318;52.390;9.754;2023-03-07T01:43:56;26.92;;;12.15;;
30533;SDS011;17318;52.390;9.754;2023-03-07T01:49:15;26.42;;;12.80;;
30533;SDS011;17318;52.390;9.754;2023-03-07T01:51:47;27.67;;;12.00;;
30533;SDS011;17318;52.390;9.754;2023-03-07T01:54:16;24.08;;;11.98;;
30533;SDS011;17318;52.390;9.754;2023-03-07T01:56:44;28.55;;;12.82;;
30533;SDS011;17318;52.390;9.754;2023-03-07T01:59:12;24.50;;;12.38;;
30533;SDS011;17318;52.390;9.754;2023-03-07T02:01:42;24.77;;;11.60;;
30533;SDS011;17318;52.390;9.754;2023-03-07T02:06:42;24.85;;;11.82;;
30533;SDS011;17318;52.390;9.754;2023-03-07T02:09:10;21.70;;;10.45;;
30533;SDS011;17318;52.390;9.754;2023-03-07T02:11:40;25.35;;;12.07;;
30533;SDS011;17318;52.390;9.754;2023-03-07T02:14:07;21.48;;;10.32;;
30533;SDS011;17318;52.390;9.754;2023-03-07T02:16:34;23.20;;;10.25;;
30533;SDS011;17318;52.390;9.754;2023-03-07T02:19:00;22.42;;;11.20;;
30533;SDS011;17318;52.390;9.754;2023-03-07T02:21:41;19.80;;;10.20;;
30533;SDS011;17318;52.390;9.754;2023-03-07T02:26:55;17.27;;;8.65;;
30533;SDS011;17318;52.390;9.754;2023-03-07T02:29:21;19.42;;;10.18;;
30533;SDS011;17318;52.390;9.754;2023-03-07T02:31:47;18.70;;;9.15;;
30533;SDS011;17318;52.390;9.754;2023-03-07T02:34:23;16.88;;;8.23;;
30533;SDS011;17318;52.390;9.754;2023-03-07T02:39:37;16.13;;;7.90;;
30533;SDS011;17318;52.390;9.754;2023-03-07T02:42:24;16.83;;;8.23;;
30533;SDS011;17318;52.390;9.754;2023-03-07T02:44:57;15.15;;;7.93;;
30533;SDS011;17318;52.390;9.754;2023-03-07T02:47:24;13.68;;;7.38;;
30533;SDS011;17318;52.390;9.754;2023-03-07T02:49:50;12.60;;;6.60;;
30533;SDS011;17318;52.390;9.754;2023-03-07T02:52:16;12.88;;;7.05;;
30533;SDS011;17318;52.390;9.754;2023-03-07T02:54:42;13.10;;;6.63;;
30533;SDS011;17318;52.390;9.754;2023-03-07T02:57:07;12.95;;;6.18;;
30533;SDS011;17318;52.390;9.754;2023-03-07T02:59:35;12.38;;;6.38;;
30533;SDS011;17318;52.390;9.754;2023-03-07T03:02:01;11.27;;;5.55;;
30533;SDS011;17318;52.390;9.754;2023-03-07T03:04:27;11.88;;;6.45;;
30533;SDS011;17318;52.390;9.754;2023-03-07T03:06:53;10.88;;;5.85;;
30533;SDS011;17318;52.390;9.754;2023-03-07T03:09:19;11.07;;;5.97;;
30533;SDS011;17318;52.390;9.754;2023-03-07T03:11:45;10.40;;;5.50;;
30533;SDS011;17318;52.390;9.754;2023-03-07T03:14:11;12.43;;;6.47;;
30533;SDS011;17318;52.390;9.754;2023-03-07T03:16:36;10.57;;;6.18;;
30533;SDS011;17318;52.390;9.754;2023-03-07T03:19:03;10.20;;;6.00;;
30533;SDS011;17318;52.390;9.754;2023-03-07T03:21:30;13.43;;;6.43;;
30533;SDS011;17318;52.390;9.754;2023-03-07T03:23:55;11.98;;;6.82;;
30533;SDS011;17318;52.390;9.754;2023-03-07T03:26:21;12.80;;;6.70;;
30533;SDS011;17318;52.390;9.754;2023-03-07T03:28:47;11.65;;;6.43;;
30533;SDS011;17318;52.390;9.754;2023-03-07T03:31:13;13.32;;;6.93;;
30533;SDS011;17318;52.390;9.754;2023-03-07T03:33:39;11.57;;;6.53;;
30533;SDS011;17318;52.390;9.754;2023-03-07T03:36:07;12.93;;;6.20;;
30533;SDS011;17318;52.390;9.754;2023-03-07T03:38:34;12.30;;;6.70;;
30533;SDS011;17318;52.390;9.754;2023-03-07T03:41:04;10.18;;;6.25;;
30533;SDS011;17318;52.390;9.754;2023-03-07T03:43:32;13.52;;;6.85;;
30533;SDS011;17318;52.390;9.754;2023-03-07T03:45:58;12.02;;;6.60;;
30533;SDS011;17318;52.390;9.754;2023-03-07T03:48:24;11.55;;;6.53;;
30533;SDS011;17318;52.390;9.754;2023-03-07T03:50:58;14.05;;;7.07;;
30533;SDS011;17318;52.390;9.754;2023-03-07T03:56:05;14.52;;;7.30;;
30533;SDS011;17318;52.390;9.754;2023-03-07T03:58:39;12.40;;;7.20;;
30533;SDS011;17318;52.390;9.754;2023-03-07T04:01:07;18.10;;;8.30;;
30533;SDS011;17318;52.390;9.754;2023-03-07T04:03:37;13.93;;;6.97;;
30533;SDS011;17318;52.390;9.754;2023-03-07T04:06:10;14.05;;;8.23;;
30533;SDS011;17318;52.390;9.754;2023-03-07T04:08:37;12.45;;;7.53;;
30533;SDS011;17318;52.390;9.754;2023-03-07T04:11:03;13.55;;;6.90;;
30533;SDS011;17318;52.390;9.754;2023-03-07T04:13:33;14.57;;;7.35;;
30533;SDS011;17318;52.390;9.754;2023-03-07T04:15:59;13.63;;;7.90;;
30533;SDS011;17318;52.390;9.754;2023-03-07T04:18:25;13.25;;;7.30;;
30533;SDS011;17318;52.390;9.754;2023-03-07T04:20:51;13.80;;;7.25;;
30533;SDS011;17318;52.390;9.754;2023-03-07T04:23:18;11.77;;;7.60;;
30533;SDS011;17318;52.390;9.754;2023-03-07T04:25:48;12.02;;;7.07;;
30533;SDS011;17318;52.390;9.754;2023-03-07T04:28:15;11.85;;;7.45;;
30533;SDS011;17318;52.390;9.754;2023-03-07T04:30:41;12.93;;;7.15;;
30533;SDS011;17318;52.390;9.754;2023-03-07T04:33:07;12.93;;;7.10;;
30533;SDS011;17318;52.390;9.754;2023-03-07T04:35:33;13.98;;;8.02;;
30533;SDS011;17318;52.390;9.754;2023-03-07T04:37:58;11.05;;;7.20;;
30533;SDS011;17318;52.390;9.754;2023-03-07T04:40:24;13.60;;;7.18;;
30533;SDS011;17318;52.390;9.754;2023-03-07T04:42:50;12.30;;;7.60;;
30533;SDS011;17318;52.390;9.754;2023-03-07T04:45:15;13.70;;;8.18;;
30533;SDS011;17318;52.390;9.754;2023-03-07T04:47:41;14.45;;;8.27;;
30533;SDS011;17318;52.390;9.754;2023-03-07T04:50:07;15.50;;;8.52;;
30533;SDS011;17318;52.390;9.754;2023-03-07T04:52:34;15.88;;;8.70;;
30533;SDS011;17318;52.390;9.754;2023-03-07T04:55:00;13.48;;;7.97;;
30533;SDS011;17318;52.390;9.754;2023-03-07T04:57:26;15.48;;;8.98;;
30533;SDS011;17318;52.390;9.754;2023-03-07T04:59:51;16.02;;;8.77;;
30533;SDS011;17318;52.390;9.754;2023-03-07T05:02:17;13.05;;;7.68;;
30533;SDS011;17318;52.390;9.754;2023-03-07T05:04:43;13.88;;;8.10;;
30533;SDS011;17318;52.390;9.754;2023-03-07T05:07:09;13.57;;;7.38;;
30533;SDS011;17318;52.390;9.754;2023-03-07T05:09:34;9.70;;;6.13;;
30533;SDS011;17318;52.390;9.754;2023-03-07T05:12:00;8.30;;;5.47;;
30533;SDS011;17318;52.390;9.754;2023-03-07T05:14:26;6.30;;;4.18;;
30533;SDS011;17318;52.390;9.754;2023-03-07T05:16:51;7.20;;;4.30;;
30533;SDS011;17318;52.390;9.754;2023-03-07T05:19:17;6.63;;;3.28;;
30533;SDS011;17318;52.390;9.754;2023-03-07T05:21:43;5.95;;;3.13;;
30533;SDS011;17318;52.390;9.754;2023-03-07T05:24:09;7.03;;;3.35;;
30533;SDS011;17318;52.390;9.754;2023-03-07T05:26:35;7.38;;;3.47;;
30533;SDS011;17318;52.390;9.754;2023-03-07T05:29:00;5.60;;;3.00;;
30533;SDS011;17318;52.390;9.754;2023-03-07T05:31:26;6.35;;;3.15;;
30533;SDS011;17318;52.390;9.754;2023-03-07T05:33:52;6.65;;;2.75;;
30533;SDS011;17318;52.390;9.754;2023-03-07T05:36:18;6.85;;;2.50;;
30533;SDS011;17318;52.390;9.754;2023-03-07T05:38:44;4.40;;;2.33;;
30533;SDS011;17318;52.390;9.754;2023-03-07T05:41:10;3.90;;;1.98;;
30533;SDS011;17318;52.390;9.754;2023-03-07T05:43:36;6.53;;;1.60;;
30533;SDS011;17318;52.390;9.754;2023-03-07T05:46:02;3.55;;;1.85;;
30533;SDS011;17318;52.390;9.754;2023-03-07T05:48:28;7.93;;;1.48;;
30533;SDS011;17318;52.390;9.754;2023-03-07T05:50:57;8.10;;;1.20;;
30533;SDS011;17318;52.390;9.754;2023-03-07T05:53:24;2.97;;;1.02;;
30533;SDS011;17318;52.390;9.754;2023-03-07T05:55:50;5.28;;;1.05;;
30533;SDS011;17318;52.390;9.754;2023-03-07T05:58:15;5.47;;;0.80;;
30533;SDS011;17318;52.390;9.754;2023-03-07T06:00:41;3.60;;;0.73;;
30533;SDS011;17318;52.390;9.754;2023-03-07T06:03:07;5.55;;;1.00;;
30533;SDS011;17318;52.390;9.754;2023-03-07T06:05:32;3.80;;;1.00;;
30533;SDS011;17318;52.390;9.754;2023-03-07T06:07:58;9.77;;;0.88;;
30533;SDS011;17318;52.390;9.754;2023-03-07T06:10:24;4.80;;;1.10;;
30533;SDS011;17318;52.390;9.754;2023-03-07T06:12:50;8.55;;;1.00;;
30533;SDS011;17318;52.390;9.754;2023-03-07T06:15:17;3.27;;;1.13;;
30533;SDS011;17318;52.390;9.754;2023-03-07T06:17:43;5.95;;;1.05;;
30533;SDS011;17318;52.390;9.754;2023-03-07T06:20:09;7.32;;;1.58;;
30533;SDS011;17318;52.390;9.754;2023-03-07T06:22:37;5.28;;;0.57;;
30533;SDS011;17318;52.390;9.754;2023-03-07T06:25:06;3.33;;;1.00;;
30533;SDS011;17318;52.390;9.754;2023-03-07T06:27:33;4.80;;;1.30;;
30533;SDS011;17318;52.390;9.754;2023-03-07T06:29:59;2.13;;;0.80;;
30533;SDS011;17318;52.390;9.754;2023-03-07T06:32:25;4.35;;;0.82;;
30533;SDS011;17318;52.390;9.754;2023-03-07T06:34:51;6.28;;;1.10;;
30533;SDS011;17318;52.390;9.754;2023-03-07T06:37:16;5.63;;;1.05;;
30533;SDS011;17318;52.390;9.754;2023-03-07T06:39:42;7.32;;;1.20;;
30533;SDS011;17318;52.390;9.754;2023-03-07T06:42:07;7.13;;;1.20;;
30533;SDS011;17318;52.390;9.754;2023-03-07T06:44:33;6.10;;;1.40;;
30533;SDS011;17318;52.390;9.754;2023-03-07T06:46:59;6.03;;;1.10;;
30533;SDS011;17318;52.390;9.754;2023-03-07T06:49:25;3.92;;;1.50;;
30533;SDS011;17318;52.390;9.754;2023-03-07T06:51:51;4.18;;;1.05;;
30533;SDS011;17318;52.390;9.754;2023-03-07T06:54:17;8.35;;;1.45;;
30533;SDS011;17318;52.390;9.754;2023-03-07T06:56:42;6.38;;;1.30;;
30533;SDS011;17318;52.390;9.754;2023-03-07T06:59:08;3.58;;;1.45;;
30533;SDS011;17318;52.390;9.754;2023-03-07T07:01:35;4.53;;;1.33;;
30533;SDS011;17318;52.390;9.754;2023-03-07T07:04:01;3.63;;;1.20;;
30533;SDS011;17318;52.390;9.754;2023-03-07T07:06:27;6.10;;;1.08;;
30533;SDS011;17318;52.390;9.754;2023-03-07T07:08:54;4.95;;;1.25;;
30533;SDS011;17318;52.390;9.754;2023-03-07T07:11:21;8.98;;;1.83;;
30533;SDS011;17318;52.390;9.754;2023-03-07T07:13:47;3.30;;;0.85;;
30533;SDS011;17318;52.390;9.754;2023-03-07T07:16:15;8.95;;;1.10;;
30533;SDS011;17318;52.390;9.754;2023-03-07T07:18:41;4.22;;;1.40;;
30533;SDS011;17318;52.390;9.754;2023-03-07T07:21:07;3.75;;;1.20;;
30533;SDS011;17318;52.390;9.754;2023-03-07T07:23:33;3.17;;;0.98;;
30533;SDS011;17318;52.390;9.754;2023-03-07T07:25:58;8.05;;;1.48;;
30533;SDS011;17318;52.390;9.754;2023-03-07T07:28:24;5.53;;;0.98;;
30533;SDS011;17318;52.390;9.754;2023-03-07T07:30:50;4.03;;;1.05;;
30533;SDS011;17318;52.390;9.754;2023-03-07T07:33:16;4.65;;;1.15;;
30533;SDS011;17318;52.390;9.754;2023-03-07T07:35:42;3.10;;;1.23;;
30533;SDS011;17318;52.390;9.754;2023-03-07T07:38:08;2.05;;;1.10;;
30533;SDS011;17318;52.390;9.754;2023-03-07T07:40:34;3.97;;;1.38;;
30533;SDS011;17318;52.390;9.754;2023-03-07T07:43:00;9.25;;;1.30;;
30533;SDS011;17318;52.390;9.754;2023-03-07T07:45:25;6.15;;;1.33;;
30533;SDS011;17318;52.390;9.754;2023-03-07T07:47:51;9.73;;;2.00;;
30533;SDS011;17318;52.390;9.754;2023-03-07T07:50:18;4.07;;;1.27;;
30533;SDS011;17318;52.390;9.754;2023-03-07T07:52:45;5.53;;;1.55;;
30533;SDS011;17318;52.390;9.754;2023-03-07T07:55:11;5.20;;;1.52;;
30533;SDS011;17318;52.390;9.754;2023-03-07T07:57:40;5.72;;;1.33;;
30533;SDS011;17318;52.390;9.754;2023-03-07T08:00:07;5.22;;;1.52;;
30533;SDS011;17318;52.390;9.754;2023-03-07T08:02:34;8.82;;;1.73;;
30533;SDS011;17318;52.390;9.754;2023-03-07T08:05:01;8.95;;;1.80;;
30533;SDS011;17318;52.390;9.754;2023-03-07T08:07:29;10.95;;;2.13;;
30533;SDS011;17318;52.390;9.754;2023-03-07T08:09:54;10.57;;;2.38;;
30533;SDS011;17318;52.390;9.754;2023-03-07T08:12:20;4.22;;;1.58;;
30533;SDS011;17318;52.390;9.754;2023-03-07T08:14:45;5.10;;;1.58;;
30533;SDS011;17318;52.390;9.754;2023-03-07T08:17:11;4.57;;;1.65;;
30533;SDS011;17318;52.390;9.754;2023-03-07T08:19:37;4.10;;;1.60;;
30533;SDS011;17318;52.390;9.754;2023-03-07T08:22:02;2.42;;;1.27;;
30533;SDS011;17318;52.390;9.754;2023-03-07T08:24:28;5.85;;;1.52;;
30533;SDS011;17318;52.390;9.754;2023-03-07T08:26:56;5.65;;;1.98;;
30533;SDS011;17318;52.390;9.754;2023-03-07T08:29:22;5.05;;;1.50;;
30533;SDS011;17318;52.390;9.754;2023-03-07T08:31:48;6.70;;;1.67;;
30533;SDS011;17318;52.390;9.754;2023-03-07T08:34:16;5.07;;;1.35;;
30533;SDS011;17318;52.390;9.754;2023-03-07T08:36:42;6.03;;;1.27;;
30533;SDS011;17318;52.390;9.754;2023-03-07T08:39:08;3.33;;;1.20;;
30533;SDS011;17318;52.390;9.754;2023-03-07T08:41:33;9.73;;;1.75;;
30533;SDS011;17318;52.390;9.754;2023-03-07T08:43:59;6.13;;;1.50;;
30533;SDS011;17318;52.390;9.754;2023-03-07T08:46:25;11.27;;;4.38;;
30533;SDS011;17318;52.390;9.754;2023-03-07T08:48:50;5.65;;;1.10;;
30533;SDS011;17318;52.390;9.754;2023-03-07T08:51:16;3.08;;;1.10;;
30533;SDS011;17318;52.390;9.754;2023-03-07T08:53:43;6.75;;;0.90;;
30533;SDS011;17318;52.390;9.754;2023-03-07T08:56:11;8.00;;;1.80;;
30533;SDS011;17318;52.390;9.754;2023-03-07T08:58:39;9.23;;;1.55;;
30533;SDS011;17318;52.390;9.754;2023-03-07T09:01:05;4.22;;;0.82;;
30533;SDS011;17318;52.390;9.754;2023-03-07T09:03:32;8.73;;;0.97;;
30533;SDS011;17318;52.390;9.754;2023-03-07T09:05:58;10.02;;;1.13;;
30533;SDS011;17318;52.390;9.754;2023-03-07T09:08:24;3.55;;;0.95;;
30533;SDS011;17318;52.390;9.754;2023-03-07T09:10:50;3.67;;;0.77;;
30533;SDS011;17318;52.390;9.754;2023-03-07T09:13:16;11.63;;;1.00;;
30533;SDS011;17318;52.390;9.754;2023-03-07T09:15:42;5.70;;;1.00;;
30533;SDS011;17318;52.390;9.754;2023-03-07T09:18:08;4.38;;;0.88;;
30533;SDS011;17318;52.390;9.754;2023-03-07T09:20:34;6.35;;;1.35;;
30533;SDS011;17318;52.390;9.754;2023-03-07T09:23:02;7.78;;;1.10;;
30533;SDS011;17318;52.390;9.754;2023-03-07T09:25:28;5.72;;;0.90;;
30533;SDS011;17318;52.390;9.754;2023-03-07T09:27:54;19.50;;;6.28;;
30533;SDS011;17318;52.390;9.754;2023-03-07T09:30:20;40.83;;;17.13;;
30533;SDS011;17318;52.390;9.754;2023-03-07T09:32:47;8.48;;;1.83;;
30533;SDS011;17318;52.390;9.754;2023-03-07T09:35:13;2.75;;;0.90;;
30533;SDS011;17318;52.390;9.754;2023-03-07T09:37:39;7.68;;;1.10;;
30533;SDS011;17318;52.390;9.754;2023-03-07T09:40:05;8.20;;;1.02;;
30533;SDS011;17318;52.390;9.754;2023-03-07T09:45:36;5.28;;;1.00;;
30533;SDS011;17318;52.390;9.754;2023-03-07T09:50:46;5.78;;;1.17;;
30533;SDS011;17318;52.390;9.754;2023-03-07T09:55:48;3.00;;;0.85;;
30533;SDS011;17318;52.390;9.754;2023-03-07T09:58:17;3.75;;;0.90;;
30533;SDS011;17318;52.390;9.754;2023-03-07T10:00:47;1.70;;;0.77;;
30533;SDS011;17318;52.390;9.754;2023-03-07T10:04:05;5.70;;;1.15;;
30533;SDS011;17318;52.390;9.754;2023-03-07T10:06:15;2.13;;;0.70;;
30533;SDS011;17318;52.390;9.754;2023-03-07T10:08:50;1.50;;;0.77;;
30533;SDS011;17318;52.390;9.754;2023-03-07T10:19:24;3.83;;;0.90;;
30533;SDS011;17318;52.390;9.754;2023-03-07T10:22:18;1.35;;;0.90;;
30533;SDS011;17318;52.390;9.754;2023-03-07T10:25:05;3.95;;;0.95;;
30533;SDS011;17318;52.390;9.754;2023-03-07T10:27:51;6.90;;;1.20;;
30533;SDS011;17318;52.390;9.754;2023-03-07T10:30:20;2.35;;;1.00;;
30533;SDS011;17318;52.390;9.754;2023-03-07T10:32:49;2.53;;;0.70;;
30533;SDS011;17318;52.390;9.754;2023-03-07T10:35:22;3.35;;;0.60;;
30533;SDS011;17318;52.390;9.754;2023-03-07T10:38:03;3.65;;;0.95;;
30533;SDS011;17318;52.390;9.754;2023-03-07T10:40:58;2.55;;;1.00;;
30533;SDS011;17318;52.390;9.754;2023-03-07T10:43:46;3.67;;;1.00;;
30533;SDS011;17318;52.390;9.754;2023-03-07T10:46:15;5.03;;;1.20;;
30533;SDS011;17318;52.390;9.754;2023-03-07T10:49:25;4.30;;;0.98;;
30533;SDS011;17318;52.390;9.754;2023-03-07T10:54:41;4.57;;;1.90;;
30533;SDS011;17318;52.390;9.754;2023-03-07T10:57:11;6.25;;;0.90;;
30533;SDS011;17318;52.390;9.754;2023-03-07T10:59:41;6.03;;;1.58;;
30533;SDS011;17318;52.390;9.754;2023-03-07T11:04:50;3.10;;;0.70;;
30533;SDS011;17318;52.390;9.754;2023-03-07T11:07:27;2.17;;;0.88;;
30533;SDS011;17318;52.390;9.754;2023-03-07T11:10:01;6.35;;;1.02;;
30533;SDS011;17318;52.390;9.754;2023-03-07T11:12:46;3.17;;;1.30;;
30533;SDS011;17318;52.390;9.754;2023-03-07T11:15:19;1.83;;;1.10;;
30533;SDS011;17318;52.390;9.754;2023-03-07T11:17:48;2.90;;;1.20;;
30533;SDS011;17318;52.390;9.754;2023-03-07T11:20:19;3.83;;;1.20;;
30533;SDS011;17318;52.390;9.754;2023-03-07T11:23:17;4.18;;;1.08;;
30533;SDS011;17318;52.390;9.754;2023-03-07T11:25:47;6.38;;;1.20;;
30533;SDS011;17318;52.390;9.754;2023-03-07T11:28:24;4.88;;;1.70;;
30533;SDS011;17318;52.390;9.754;2023-03-07T11:36:30;4.40;;;1.10;;
30533;SDS011;17318;52.390;9.754;2023-03-07T11:41:50;5.35;;;2.53;;
30533;SDS011;17318;52.390;9.754;2023-03-07T11:52:36;4.32;;;1.15;;
30533;SDS011;17318;52.390;9.754;2023-03-07T12:06:54;1.13;;;0.82;;
30533;SDS011;17318;52.390;9.754;2023-03-07T12:19:42;2.67;;;1.15;;
30533;SDS011;17318;52.390;9.754;2023-03-07T12:22:27;1.50;;;1.20;;
30533;SDS011;17318;52.390;9.754;2023-03-07T12:25:02;4.57;;;1.52;;
30533;SDS011;17318;52.390;9.754;2023-03-07T12:30:25;3.70;;;1.10;;
30533;SDS011;17318;52.390;9.754;2023-03-07T12:33:08;3.45;;;1.70;;
30533;SDS011;17318;52.390;9.754;2023-03-07T12:35:57;2.38;;;0.90;;
30533;SDS011;17318;52.390;9.754;2023-03-07T12:38:31;5.22;;;1.75;;
30533;SDS011;17318;52.390;9.754;2023-03-07T12:42:03;1.95;;;0.90;;
30533;SDS011;17318;52.390;9.754;2023-03-07T12:44:02;4.65;;;1.40;;
30533;SDS011;17318;52.390;9.754;2023-03-07T12:46:53;2.40;;;1.02;;
30533;SDS011;17318;52.390;9.754;2023-03-07T13:00:34;8.98;;;2.30;;
30533;SDS011;17318;52.390;9.754;2023-03-07T13:03:04;5.55;;;2.08;;
30533;SDS011;17318;52.390;9.754;2023-03-07T13:05:32;6.40;;;1.73;;
30533;SDS011;17318;52.390;9.754;2023-03-07T13:08:01;5.35;;;2.10;;
30533;SDS011;17318;52.390;9.754;2023-03-07T13:10:30;7.90;;;2.88;;
30533;SDS011;17318;52.390;9.754;2023-03-07T13:12:56;7.28;;;2.17;;
30533;SDS011;17318;52.390;9.754;2023-03-07T13:27:47;3.20;;;1.30;;
30533;SDS011;17318;52.390;9.754;2023-03-07T13:43:01;3.13;;;1.08;;
30533;SDS011;17318;52.390;9.754;2023-03-07T13:48:06;2.40;;;1.23;;
30533;SDS011;17318;52.390;9.754;2023-03-07T13:53:03;2.75;;;0.85;;
30533;SDS011;17318;52.390;9.754;2023-03-07T13:55:39;6.10;;;1.27;;
30533;SDS011;17318;52.390;9.754;2023-03-07T14:00:54;3.78;;;1.00;;
30533;SDS011;17318;52.390;9.754;2023-03-07T14:08:39;4.45;;;1.00;;
30533;SDS011;17318;52.390;9.754;2023-03-07T14:11:06;6.50;;;2.25;;
30533;SDS011;17318;52.390;9.754;2023-03-07T14:13:50;2.42;;;0.80;;
30533;SDS011;17318;52.390;9.754;2023-03-07T14:22:22;4.65;;;0.82;;
30533;SDS011;17318;52.390;9.754;2023-03-07T14:27:54;1.88;;;0.98;;
30533;SDS011;17318;52.390;9.754;2023-03-07T14:30:28;4.55;;;1.83;;
30533;SDS011;17318;52.390;9.754;2023-03-07T14:32:56;2.20;;;0.52;;
30533;SDS011;17318;52.390;9.754;2023-03-07T14:38:21;3.00;;;0.82;;
30533;SDS011;17318;52.390;9.754;2023-03-07T14:46:28;4.47;;;1.10;;
30533;SDS011;17318;52.390;9.754;2023-03-07T14:52:20;3.73;;;0.80;;
30533;SDS011;17318;52.390;9.754;2023-03-07T14:54:47;2.70;;;0.98;;
30533;SDS011;17318;52.390;9.754;2023-03-07T14:57:22;3.80;;;0.70;;
30533;SDS011;17318;52.390;9.754;2023-03-07T15:02:45;8.65;;;0.93;;
30533;SDS011;17318;52.390;9.754;2023-03-07T15:07:59;4.63;;;0.73;;
30533;SDS011;17318;52.390;9.754;2023-03-07T15:10:30;2.60;;;0.75;;
30533;SDS011;17318;52.390;9.754;2023-03-07T15:13:09;3.30;;;0.98;;
30533;SDS011;17318;52.390;9.754;2023-03-07T15:15:50;5.88;;;0.82;;
30533;SDS011;17318;52.390;9.754;2023-03-07T15:20:57;4.57;;;1.13;;
30533;SDS011;17318;52.390;9.754;2023-03-07T15:23:25;5.35;;;0.90;;
30533;SDS011;17318;52.390;9.754;2023-03-07T15:25:55;5.38;;;0.90;;
30533;SDS011;17318;52.390;9.754;2023-03-07T15:28:27;7.13;;;1.40;;
30533;SDS011;17318;52.390;9.754;2023-03-07T15:30:56;4.07;;;0.80;;
30533;SDS011;17318;52.390;9.754;2023-03-07T15:33:23;5.65;;;1.35;;
30533;SDS011;17318;52.390;9.754;2023-03-07T15:36:07;4.95;;;0.82;;
30533;SDS011;17318;52.390;9.754;2023-03-07T15:38:48;1.80;;;0.82;;
30533;SDS011;17318;52.390;9.754;2023-03-07T15:46:45;4.63;;;0.80;;
30533;SDS011;17318;52.390;9.754;2023-03-07T15:52:15;2.67;;;1.15;;
30533;SDS011;17318;52.390;9.754;2023-03-07T15:54:52;4.63;;;1.20;;
30533;SDS011;17318;52.390;9.754;2023-03-07T15:57:21;24.38;;;8.07;;
30533;SDS011;17318;52.390;9.754;2023-03-07T15:59:56;25.95;;;10.82;;
30533;SDS011;17318;52.390;9.754;2023-03-07T16:04:56;10.70;;;2.17;;
30533;SDS011;17318;52.390;9.754;2023-03-07T16:07:23;16.23;;;2.17;;
30533;SDS011;17318;52.390;9.754;2023-03-07T16:09:48;10.30;;;1.40;;
30533;SDS011;17318;52.390;9.754;2023-03-07T16:12:15;9.95;;;1.73;;
30533;SDS011;17318;52.390;9.754;2023-03-07T16:14:45;11.43;;;1.95;;
30533;SDS011;17318;52.390;9.754;2023-03-07T16:17:16;8.35;;;1.63;;
30533;SDS011;17318;52.390;9.754;2023-03-07T16:19:43;4.30;;;1.08;;
30533;SDS011;17318;52.390;9.754;2023-03-07T16:22:13;6.55;;;1.20;;
30533;SDS011;17318;52.390;9.754;2023-03-07T16:24:40;6.80;;;1.23;;
30533;SDS011;17318;52.390;9.754;2023-03-07T16:27:27;6.63;;;1.00;;
30533;SDS011;17318;52.390;9.754;2023-03-07T16:29:52;6.72;;;1.42;;
30533;SDS011;17318;52.390;9.754;2023-03-07T16:32:19;6.78;;;1.02;;
30533;SDS011;17318;52.390;9.754;2023-03-07T16:34:46;6.00;;;1.35;;
30533;SDS011;17318;52.390;9.754;2023-03-07T16:37:12;3.88;;;1.20;;
30533;SDS011;17318;52.390;9.754;2023-03-07T16:39:38;7.93;;;1.67;;
30533;SDS011;17318;52.390;9.754;2023-03-07T16:42:05;9.18;;;1.73;;
30533;SDS011;17318;52.390;9.754;2023-03-07T16:44:31;5.47;;;1.63;;
30533;SDS011;17318;52.390;9.754;2023-03-07T16:47:03;8.68;;;1.65;;
30533;SDS011;17318;52.390;9.754;2023-03-07T16:49:32;5.35;;;1.73;;
30533;SDS011;17318;52.390;9.754;2023-03-07T16:51:59;7.65;;;2.40;;
30533;SDS011;17318;52.390;9.754;2023-03-07T16:54:24;6.43;;;1.65;;
30533;SDS011;17318;52.390;9.754;2023-03-07T16:56:50;6.63;;;1.70;;
30533;SDS011;17318;52.390;9.754;2023-03-07T16:59:18;7.75;;;1.30;;
30533;SDS011;17318;52.390;9.754;2023-03-07T17:01:47;10.20;;;2.38;;
30533;SDS011;17318;52.390;9.754;2023-03-07T17:04:15;9.90;;;1.60;;
30533;SDS011;17318;52.390;9.754;2023-03-07T17:06:41;8.38;;;1.40;;
30533;SDS011;17318;52.390;9.754;2023-03-07T17:09:09;8.40;;;2.13;;
30533;SDS011;17318;52.390;9.754;2023-03-07T17:14:03;12.65;;;5.13;;
30533;SDS011;17318;52.390;9.754;2023-03-07T17:16:31;6.47;;;1.60;;
30533;SDS011;17318;52.390;9.754;2023-03-07T17:18:57;8.02;;;1.67;;
30533;SDS011;17318;52.390;9.754;2023-03-07T17:21:23;2.65;;;1.40;;
30533;SDS011;17318;52.390;9.754;2023-03-07T17:23:49;11.10;;;1.95;;
30533;SDS011;17318;52.390;9.754;2023-03-07T17:26:20;8.35;;;2.38;;
30533;SDS011;17318;52.390;9.754;2023-03-07T17:29:03;15.15;;;2.63;;
30533;SDS011;17318;52.390;9.754;2023-03-07T17:31:33;8.95;;;1.77;;
30533;SDS011;17318;52.390;9.754;2023-03-07T17:33:59;14.85;;;2.50;;
30533;SDS011;17318;52.390;9.754;2023-03-07T17:36:25;6.07;;;1.98;;
30533;SDS011;17318;52.390;9.754;2023-03-07T17:38:50;6.00;;;1.70;;